sensor_id;sensor_type;location;lat;lon;timestamp;P1;durP1;ratioP1;P2;durP2;ratioP2
21806;SDS011;11065;50.786;7.840;2022-12-15T00:01:58;10.67;;;7.17;;
21806;SDS011;11065;50.786;7.840;2022-12-15T00:04:44;8.13;;;5.97;;
21806;SDS011;11065;50.786;7.840;2022-12-15T00:07:31;9.03;;;5.00;;
21806;SDS011;11065;50.786;7.840;2022-12-15T00:10:16;9.40;;;5.97;;
21806;SDS011;11065;50.786;7.840;2022-12-15T00:13:02;8.73;;;5.60;;
21806;SDS011;11065;50.786;7.840;2022-12-15T00:15:55;7.73;;;5.47;;
21806;SDS011;11065;50.786;7.840;2022-12-15T00:18:40;7.70;;;5.50;;
21806;SDS011;11065;50.786;7.840;2022-12-15T00:21:26;7.07;;;5.33;;
21806;SDS011;11065;50.786;7.840;2022-12-15T00:24:12;8.63;;;5.63;;
21806;SDS011;11065;50.786;7.840;2022-12-15T00:26:57;9.80;;;6.03;;
21806;SDS011;11065;50.786;7.840;2022-12-15T00:29:42;6.97;;;5.10;;
21806;SDS011;11065;50.786;7.840;2022-12-15T00:32:28;6.63;;;4.97;;
21806;SDS011;11065;50.786;7.840;2022-12-15T00:35:13;7.37;;;5.30;;
21806;SDS011;11065;50.786;7.840;2022-12-15T00:38:05;7.37;;;4.73;;
21806;SDS011;11065;50.786;7.840;2022-12-15T00:40:55;6.97;;;4.90;;
21806;SDS011;11065;50.786;7.840;2022-12-15T00:43:25;7.47;;;4.87;;
21806;SDS011;11065;50.786;7.840;2022-12-15T00:45:57;6.93;;;4.70;;
21806;SDS011;11065;50.786;7.840;2022-12-15T00:48:43;7.73;;;4.60;;
21806;SDS011;11065;50.786;7.840;2022-12-15T00:51:11;6.50;;;4.47;;
21806;SDS011;11065;50.786;7.840;2022-12-15T00:53:39;7.57;;;4.77;;
21806;SDS011;11065;50.786;7.840;2022-12-15T00:56:24;7.07;;;4.80;;
21806;SDS011;11065;50.786;7.840;2022-12-15T00:59:10;6.60;;;4.70;;
21806;SDS011;11065;50.786;7.840;2022-12-15T01:01:56;7.27;;;5.10;;
21806;SDS011;11065;50.786;7.840;2022-12-15T01:04:42;6.53;;;4.77;;
21806;SDS011;11065;50.786;7.840;2022-12-15T01:07:27;7.50;;;4.37;;
21806;SDS011;11065;50.786;7.840;2022-12-15T01:10:15;6.80;;;4.80;;
21806;SDS011;11065;50.786;7.840;2022-12-15T01:13:02;5.93;;;4.60;;
21806;SDS011;11065;50.786;7.840;2022-12-15T01:15:49;8.43;;;5.77;;
21806;SDS011;11065;50.786;7.840;2022-12-15T01:18:35;6.33;;;5.10;;
21806;SDS011;11065;50.786;7.840;2022-12-15T01:21:21;8.87;;;6.03;;
21806;SDS011;11065;50.786;7.840;2022-12-15T01:23:50;7.67;;;5.00;;
21806;SDS011;11065;50.786;7.840;2022-12-15T01:26:18;7.77;;;5.40;;
21806;SDS011;11065;50.786;7.840;2022-12-15T01:28:45;7.57;;;5.47;;
21806;SDS011;11065;50.786;7.840;2022-12-15T01:31:12;7.87;;;5.10;;
21806;SDS011;11065;50.786;7.840;2022-12-15T01:33:39;8.70;;;6.00;;
21806;SDS011;11065;50.786;7.840;2022-12-15T01:36:09;7.93;;;5.53;;
21806;SDS011;11065;50.786;7.840;2022-12-15T01:38:36;6.97;;;4.33;;
21806;SDS011;11065;50.786;7.840;2022-12-15T01:41:08;7.90;;;5.63;;
21806;SDS011;11065;50.786;7.840;2022-12-15T01:43:38;8.90;;;5.77;;
21806;SDS011;11065;50.786;7.840;2022-12-15T01:46:10;7.43;;;5.00;;
21806;SDS011;11065;50.786;7.840;2022-12-15T01:48:43;8.87;;;5.67;;
21806;SDS011;11065;50.786;7.840;2022-12-15T01:51:31;7.73;;;5.37;;
21806;SDS011;11065;50.786;7.840;2022-12-15T01:54:06;8.43;;;5.70;;
21806;SDS011;11065;50.786;7.840;2022-12-15T01:56:38;7.87;;;5.40;;
21806;SDS011;11065;50.786;7.840;2022-12-15T01:59:10;7.73;;;5.27;;
21806;SDS011;11065;50.786;7.840;2022-12-15T02:01:42;8.80;;;5.97;;
21806;SDS011;11065;50.786;7.840;2022-12-15T02:04:15;7.77;;;5.33;;
21806;SDS011;11065;50.786;7.840;2022-12-15T02:06:45;7.70;;;5.60;;
21806;SDS011;11065;50.786;7.840;2022-12-15T02:09:12;11.90;;;6.93;;
21806;SDS011;11065;50.786;7.840;2022-12-15T02:14:13;9.37;;;6.30;;
21806;SDS011;11065;50.786;7.840;2022-12-15T02:17:04;9.63;;;6.47;;
21806;SDS011;11065;50.786;7.840;2022-12-15T02:25:52;9.60;;;6.30;;
21806;SDS011;11065;50.786;7.840;2022-12-15T02:28:51;8.93;;;5.83;;
21806;SDS011;11065;50.786;7.840;2022-12-15T02:31:37;9.00;;;6.33;;
21806;SDS011;11065;50.786;7.840;2022-12-15T02:37:18;8.33;;;5.90;;
21806;SDS011;11065;50.786;7.840;2022-12-15T02:39:50;8.40;;;5.67;;
21806;SDS011;11065;50.786;7.840;2022-12-15T02:42:17;9.70;;;6.73;;
21806;SDS011;11065;50.786;7.840;2022-12-15T02:47:31;9.87;;;6.10;;
21806;SDS011;11065;50.786;7.840;2022-12-15T03:01:17;13.27;;;7.53;;
21806;SDS011;11065;50.786;7.840;2022-12-15T03:03:51;10.73;;;6.90;;
21806;SDS011;11065;50.786;7.840;2022-12-15T03:06:20;15.27;;;11.17;;
21806;SDS011;11065;50.786;7.840;2022-12-15T03:08:50;17.40;;;11.43;;
21806;SDS011;11065;50.786;7.840;2022-12-15T03:11:17;13.30;;;9.27;;
21806;SDS011;11065;50.786;7.840;2022-12-15T03:13:44;11.87;;;8.90;;
21806;SDS011;11065;50.786;7.840;2022-12-15T03:16:15;11.10;;;7.53;;
21806;SDS011;11065;50.786;7.840;2022-12-15T03:18:42;11.67;;;7.20;;
21806;SDS011;11065;50.786;7.840;2022-12-15T03:21:09;8.93;;;6.40;;
21806;SDS011;11065;50.786;7.840;2022-12-15T03:23:36;11.23;;;7.80;;
21806;SDS011;11065;50.786;7.840;2022-12-15T03:26:03;9.80;;;6.50;;
21806;SDS011;11065;50.786;7.840;2022-12-15T03:28:31;12.40;;;7.57;;
21806;SDS011;11065;50.786;7.840;2022-12-15T03:30:58;10.00;;;6.37;;
21806;SDS011;11065;50.786;7.840;2022-12-15T03:33:25;12.33;;;7.60;;
21806;SDS011;11065;50.786;7.840;2022-12-15T03:35:54;10.53;;;7.33;;
21806;SDS011;11065;50.786;7.840;2022-12-15T03:38:21;10.27;;;7.03;;
21806;SDS011;11065;50.786;7.840;2022-12-15T03:40:48;10.57;;;6.83;;
21806;SDS011;11065;50.786;7.840;2022-12-15T03:43:15;10.40;;;7.00;;
21806;SDS011;11065;50.786;7.840;2022-12-15T03:45:42;10.13;;;7.53;;
21806;SDS011;11065;50.786;7.840;2022-12-15T03:48:09;9.97;;;7.20;;
21806;SDS011;11065;50.786;7.840;2022-12-15T03:50:36;11.07;;;7.30;;
21806;SDS011;11065;50.786;7.840;2022-12-15T03:53:03;11.30;;;7.20;;
21806;SDS011;11065;50.786;7.840;2022-12-15T03:55:30;11.67;;;7.57;;
21806;SDS011;11065;50.786;7.840;2022-12-15T03:57:58;11.13;;;7.63;;
21806;SDS011;11065;50.786;7.840;2022-12-15T04:00:25;12.00;;;7.57;;
21806;SDS011;11065;50.786;7.840;2022-12-15T04:02:52;11.03;;;7.33;;
21806;SDS011;11065;50.786;7.840;2022-12-15T04:05:21;10.20;;;7.10;;
21806;SDS011;11065;50.786;7.840;2022-12-15T04:07:48;9.77;;;7.07;;
21806;SDS011;11065;50.786;7.840;2022-12-15T04:10:15;10.13;;;6.67;;
21806;SDS011;11065;50.786;7.840;2022-12-15T04:12:42;9.50;;;7.40;;
21806;SDS011;11065;50.786;7.840;2022-12-15T04:15:09;10.50;;;7.03;;
21806;SDS011;11065;50.786;7.840;2022-12-15T04:17:36;10.57;;;6.77;;
21806;SDS011;11065;50.786;7.840;2022-12-15T04:20:04;10.07;;;7.20;;
21806;SDS011;11065;50.786;7.840;2022-12-15T04:22:36;12.37;;;7.07;;
21806;SDS011;11065;50.786;7.840;2022-12-15T04:25:05;10.97;;;7.87;;
21806;SDS011;11065;50.786;7.840;2022-12-15T04:27:52;9.43;;;7.40;;
21806;SDS011;11065;50.786;7.840;2022-12-15T04:30:39;9.10;;;7.07;;
21806;SDS011;11065;50.786;7.840;2022-12-15T04:33:29;11.30;;;7.83;;
21806;SDS011;11065;50.786;7.840;2022-12-15T04:36:15;10.70;;;7.03;;
21806;SDS011;11065;50.786;7.840;2022-12-15T04:39:02;11.73;;;6.80;;
21806;SDS011;11065;50.786;7.840;2022-12-15T04:41:49;9.27;;;6.63;;
21806;SDS011;11065;50.786;7.840;2022-12-15T04:44:36;10.43;;;7.20;;
21806;SDS011;11065;50.786;7.840;2022-12-15T04:47:21;10.17;;;7.20;;
21806;SDS011;11065;50.786;7.840;2022-12-15T04:50:07;11.93;;;7.67;;
21806;SDS011;11065;50.786;7.840;2022-12-15T04:52:52;11.23;;;7.83;;
21806;SDS011;11065;50.786;7.840;2022-12-15T04:55:38;11.53;;;7.33;;
21806;SDS011;11065;50.786;7.840;2022-12-15T04:58:23;10.80;;;7.47;;
21806;SDS011;11065;50.786;7.840;2022-12-15T05:01:08;9.57;;;6.70;;
21806;SDS011;11065;50.786;7.840;2022-12-15T05:03:54;13.63;;;8.03;;
21806;SDS011;11065;50.786;7.840;2022-12-15T05:06:40;10.77;;;7.13;;
21806;SDS011;11065;50.786;7.840;2022-12-15T05:09:25;11.03;;;7.93;;
21806;SDS011;11065;50.786;7.840;2022-12-15T05:12:11;10.33;;;7.03;;
21806;SDS011;11065;50.786;7.840;2022-12-15T05:14:56;11.30;;;6.67;;
21806;SDS011;11065;50.786;7.840;2022-12-15T05:17:42;10.53;;;7.57;;
21806;SDS011;11065;50.786;7.840;2022-12-15T05:20:27;11.40;;;8.00;;
21806;SDS011;11065;50.786;7.840;2022-12-15T05:23:15;11.03;;;7.40;;
21806;SDS011;11065;50.786;7.840;2022-12-15T05:26:01;10.40;;;7.10;;
21806;SDS011;11065;50.786;7.840;2022-12-15T05:28:46;11.37;;;7.57;;
21806;SDS011;11065;50.786;7.840;2022-12-15T05:31:32;11.50;;;7.53;;
21806;SDS011;11065;50.786;7.840;2022-12-15T05:34:19;10.70;;;7.50;;
21806;SDS011;11065;50.786;7.840;2022-12-15T05:36:47;11.23;;;7.70;;
21806;SDS011;11065;50.786;7.840;2022-12-15T05:39:14;11.23;;;7.23;;
21806;SDS011;11065;50.786;7.840;2022-12-15T05:41:41;10.40;;;7.87;;
21806;SDS011;11065;50.786;7.840;2022-12-15T05:44:09;10.33;;;7.37;;
21806;SDS011;11065;50.786;7.840;2022-12-15T05:46:36;12.57;;;7.83;;
21806;SDS011;11065;50.786;7.840;2022-12-15T05:49:07;9.50;;;7.53;;
21806;SDS011;11065;50.786;7.840;2022-12-15T05:51:37;11.63;;;7.90;;
21806;SDS011;11065;50.786;7.840;2022-12-15T05:54:06;11.67;;;7.57;;
21806;SDS011;11065;50.786;7.840;2022-12-15T05:56:34;10.80;;;7.10;;
21806;SDS011;11065;50.786;7.840;2022-12-15T05:59:02;11.47;;;7.67;;
21806;SDS011;11065;50.786;7.840;2022-12-15T06:01:30;11.20;;;7.57;;
21806;SDS011;11065;50.786;7.840;2022-12-15T06:03:58;11.50;;;7.70;;
21806;SDS011;11065;50.786;7.840;2022-12-15T06:06:25;10.20;;;7.30;;
21806;SDS011;11065;50.786;7.840;2022-12-15T06:08:52;11.07;;;7.37;;
21806;SDS011;11065;50.786;7.840;2022-12-15T06:11:19;10.63;;;7.47;;
21806;SDS011;11065;50.786;7.840;2022-12-15T06:13:47;9.37;;;7.07;;
21806;SDS011;11065;50.786;7.840;2022-12-15T06:16:15;11.90;;;8.00;;
21806;SDS011;11065;50.786;7.840;2022-12-15T06:18:45;11.63;;;7.83;;
21806;SDS011;11065;50.786;7.840;2022-12-15T06:21:17;10.93;;;7.87;;
21806;SDS011;11065;50.786;7.840;2022-12-15T06:23:45;12.00;;;7.07;;
21806;SDS011;11065;50.786;7.840;2022-12-15T06:26:14;11.97;;;7.70;;
21806;SDS011;11065;50.786;7.840;2022-12-15T06:28:45;11.13;;;7.03;;
21806;SDS011;11065;50.786;7.840;2022-12-15T06:31:12;9.50;;;6.63;;
21806;SDS011;11065;50.786;7.840;2022-12-15T06:33:40;10.77;;;7.33;;
21806;SDS011;11065;50.786;7.840;2022-12-15T06:36:08;10.13;;;7.03;;
21806;SDS011;11065;50.786;7.840;2022-12-15T06:38:37;12.47;;;7.90;;
21806;SDS011;11065;50.786;7.840;2022-12-15T06:41:04;10.73;;;6.93;;
21806;SDS011;11065;50.786;7.840;2022-12-15T06:43:32;10.37;;;7.50;;
21806;SDS011;11065;50.786;7.840;2022-12-15T06:46:01;12.03;;;8.00;;
21806;SDS011;11065;50.786;7.840;2022-12-15T06:48:28;13.20;;;8.03;;
21806;SDS011;11065;50.786;7.840;2022-12-15T06:50:55;12.83;;;8.10;;
21806;SDS011;11065;50.786;7.840;2022-12-15T06:53:27;10.93;;;7.60;;
21806;SDS011;11065;50.786;7.840;2022-12-15T06:55:59;11.97;;;7.83;;
21806;SDS011;11065;50.786;7.840;2022-12-15T06:58:30;11.63;;;8.40;;
21806;SDS011;11065;50.786;7.840;2022-12-15T07:00:57;10.80;;;7.80;;
21806;SDS011;11065;50.786;7.840;2022-12-15T07:03:29;12.37;;;7.87;;
21806;SDS011;11065;50.786;7.840;2022-12-15T07:06:01;15.40;;;9.60;;
21806;SDS011;11065;50.786;7.840;2022-12-15T07:08:30;13.47;;;8.87;;
21806;SDS011;11065;50.786;7.840;2022-12-15T07:11:07;14.17;;;9.27;;
21806;SDS011;11065;50.786;7.840;2022-12-15T07:13:36;15.33;;;9.90;;
21806;SDS011;11065;50.786;7.840;2022-12-15T07:16:04;12.73;;;8.90;;
21806;SDS011;11065;50.786;7.840;2022-12-15T07:18:33;12.37;;;8.13;;
21806;SDS011;11065;50.786;7.840;2022-12-15T07:21:03;12.87;;;8.10;;
21806;SDS011;11065;50.786;7.840;2022-12-15T07:23:32;14.97;;;10.23;;
21806;SDS011;11065;50.786;7.840;2022-12-15T07:26:19;13.03;;;9.03;;
21806;SDS011;11065;50.786;7.840;2022-12-15T07:28:46;13.07;;;9.03;;
21806;SDS011;11065;50.786;7.840;2022-12-15T07:31:13;12.30;;;8.07;;
21806;SDS011;11065;50.786;7.840;2022-12-15T07:33:41;11.13;;;7.80;;
21806;SDS011;11065;50.786;7.840;2022-12-15T07:36:08;13.73;;;8.87;;
21806;SDS011;11065;50.786;7.840;2022-12-15T07:38:36;12.47;;;8.43;;
21806;SDS011;11065;50.786;7.840;2022-12-15T07:41:04;12.50;;;7.97;;
21806;SDS011;11065;50.786;7.840;2022-12-15T07:43:32;11.23;;;8.50;;
21806;SDS011;11065;50.786;7.840;2022-12-15T07:46:01;13.27;;;8.83;;
21806;SDS011;11065;50.786;7.840;2022-12-15T07:48:29;12.97;;;8.63;;
21806;SDS011;11065;50.786;7.840;2022-12-15T07:50:57;13.13;;;9.73;;
21806;SDS011;11065;50.786;7.840;2022-12-15T07:53:35;14.07;;;9.63;;
21806;SDS011;11065;50.786;7.840;2022-12-15T07:56:03;16.50;;;10.37;;
21806;SDS011;11065;50.786;7.840;2022-12-15T07:58:34;13.57;;;9.60;;
21806;SDS011;11065;50.786;7.840;2022-12-15T08:01:01;15.20;;;10.07;;
21806;SDS011;11065;50.786;7.840;2022-12-15T08:03:34;13.60;;;8.90;;
21806;SDS011;11065;50.786;7.840;2022-12-15T08:06:05;16.07;;;9.93;;
21806;SDS011;11065;50.786;7.840;2022-12-15T08:08:35;15.10;;;9.17;;
21806;SDS011;11065;50.786;7.840;2022-12-15T08:11:06;11.87;;;8.47;;
21806;SDS011;11065;50.786;7.840;2022-12-15T08:13:39;14.97;;;9.40;;
21806;SDS011;11065;50.786;7.840;2022-12-15T08:16:27;14.63;;;9.03;;
21806;SDS011;11065;50.786;7.840;2022-12-15T08:18:54;14.33;;;8.87;;
21806;SDS011;11065;50.786;7.840;2022-12-15T08:21:23;12.90;;;9.20;;
21806;SDS011;11065;50.786;7.840;2022-12-15T08:23:50;13.87;;;9.27;;
21806;SDS011;11065;50.786;7.840;2022-12-15T08:26:17;14.07;;;9.57;;
21806;SDS011;11065;50.786;7.840;2022-12-15T08:28:49;15.13;;;9.43;;
21806;SDS011;11065;50.786;7.840;2022-12-15T08:31:17;14.83;;;9.83;;
21806;SDS011;11065;50.786;7.840;2022-12-15T08:33:46;14.03;;;10.27;;
21806;SDS011;11065;50.786;7.840;2022-12-15T08:36:15;15.07;;;10.17;;
21806;SDS011;11065;50.786;7.840;2022-12-15T08:38:44;15.83;;;9.43;;
21806;SDS011;11065;50.786;7.840;2022-12-15T08:41:13;15.37;;;9.60;;
21806;SDS011;11065;50.786;7.840;2022-12-15T08:43:52;16.93;;;10.73;;
21806;SDS011;11065;50.786;7.840;2022-12-15T08:46:22;16.20;;;9.83;;
21806;SDS011;11065;50.786;7.840;2022-12-15T08:48:53;16.60;;;9.97;;
21806;SDS011;11065;50.786;7.840;2022-12-15T08:51:22;15.10;;;9.80;;
21806;SDS011;11065;50.786;7.840;2022-12-15T08:53:50;14.83;;;9.67;;
21806;SDS011;11065;50.786;7.840;2022-12-15T08:56:18;14.23;;;9.50;;
21806;SDS011;11065;50.786;7.840;2022-12-15T08:58:46;14.23;;;8.90;;
21806;SDS011;11065;50.786;7.840;2022-12-15T09:01:15;14.37;;;9.47;;
21806;SDS011;11065;50.786;7.840;2022-12-15T09:03:50;14.57;;;9.03;;
21806;SDS011;11065;50.786;7.840;2022-12-15T09:06:37;11.40;;;8.30;;
21806;SDS011;11065;50.786;7.840;2022-12-15T09:09:05;13.03;;;8.03;;
21806;SDS011;11065;50.786;7.840;2022-12-15T09:11:33;12.73;;;9.17;;
21806;SDS011;11065;50.786;7.840;2022-12-15T09:14:00;14.17;;;9.23;;
21806;SDS011;11065;50.786;7.840;2022-12-15T09:16:27;14.70;;;9.40;;
21806;SDS011;11065;50.786;7.840;2022-12-15T09:18:56;15.50;;;9.30;;
21806;SDS011;11065;50.786;7.840;2022-12-15T09:21:25;15.27;;;9.83;;
21806;SDS011;11065;50.786;7.840;2022-12-15T09:23:55;15.13;;;10.13;;
21806;SDS011;11065;50.786;7.840;2022-12-15T09:26:27;14.43;;;9.83;;
21806;SDS011;11065;50.786;7.840;2022-12-15T09:28:55;14.57;;;9.97;;
21806;SDS011;11065;50.786;7.840;2022-12-15T09:31:26;15.37;;;10.80;;
21806;SDS011;11065;50.786;7.840;2022-12-15T09:33:57;13.70;;;9.73;;
21806;SDS011;11065;50.786;7.840;2022-12-15T09:36:27;13.30;;;9.47;;
21806;SDS011;11065;50.786;7.840;2022-12-15T09:38:55;14.97;;;10.57;;
21806;SDS011;11065;50.786;7.840;2022-12-15T09:41:24;14.97;;;10.37;;
21806;SDS011;11065;50.786;7.840;2022-12-15T09:43:54;14.13;;;10.00;;
21806;SDS011;11065;50.786;7.840;2022-12-15T09:52:10;15.37;;;10.20;;
21806;SDS011;11065;50.786;7.840;2022-12-15T09:54:42;14.33;;;9.90;;
21806;SDS011;11065;50.786;7.840;2022-12-15T09:57:15;14.57;;;9.67;;
21806;SDS011;11065;50.786;7.840;2022-12-15T09:59:56;15.37;;;10.73;;
21806;SDS011;11065;50.786;7.840;2022-12-15T10:02:41;15.20;;;11.20;;
21806;SDS011;11065;50.786;7.840;2022-12-15T10:08:28;15.70;;;11.13;;
21806;SDS011;11065;50.786;7.840;2022-12-15T10:11:00;17.27;;;11.37;;
21806;SDS011;11065;50.786;7.840;2022-12-15T10:13:39;17.03;;;10.87;;
21806;SDS011;11065;50.786;7.840;2022-12-15T10:21:49;17.60;;;11.73;;
21806;SDS011;11065;50.786;7.840;2022-12-15T10:24:17;19.77;;;13.17;;
21806;SDS011;11065;50.786;7.840;2022-12-15T10:29:41;16.23;;;10.50;;
21806;SDS011;11065;50.786;7.840;2022-12-15T10:32:22;15.63;;;10.23;;
21806;SDS011;11065;50.786;7.840;2022-12-15T10:34:51;15.63;;;11.13;;
21806;SDS011;11065;50.786;7.840;2022-12-15T10:37:19;15.97;;;10.77;;
21806;SDS011;11065;50.786;7.840;2022-12-15T10:39:47;16.70;;;11.37;;
21806;SDS011;11065;50.786;7.840;2022-12-15T10:42:23;23.40;;;16.47;;
21806;SDS011;11065;50.786;7.840;2022-12-15T10:44:55;21.57;;;14.40;;
21806;SDS011;11065;50.786;7.840;2022-12-15T10:47:30;21.30;;;15.50;;
21806;SDS011;11065;50.786;7.840;2022-12-15T10:52:50;18.10;;;13.50;;
21806;SDS011;11065;50.786;7.840;2022-12-15T10:55:31;16.90;;;13.87;;
21806;SDS011;11065;50.786;7.840;2022-12-15T10:58:19;17.60;;;12.77;;
21806;SDS011;11065;50.786;7.840;2022-12-15T11:00:48;16.80;;;12.70;;
21806;SDS011;11065;50.786;7.840;2022-12-15T11:03:39;16.13;;;12.07;;
21806;SDS011;11065;50.786;7.840;2022-12-15T11:06:15;16.17;;;11.90;;
21806;SDS011;11065;50.786;7.840;2022-12-15T11:08:44;16.70;;;12.47;;
21806;SDS011;11065;50.786;7.840;2022-12-15T11:14:41;16.93;;;12.07;;
21806;SDS011;11065;50.786;7.840;2022-12-15T11:17:18;17.37;;;13.00;;
21806;SDS011;11065;50.786;7.840;2022-12-15T11:19:49;17.87;;;13.07;;
21806;SDS011;11065;50.786;7.840;2022-12-15T11:22:47;17.40;;;12.80;;
21806;SDS011;11065;50.786;7.840;2022-12-15T11:25:45;17.43;;;12.97;;
21806;SDS011;11065;50.786;7.840;2022-12-15T11:28:24;17.13;;;13.63;;
21806;SDS011;11065;50.786;7.840;2022-12-15T11:31:02;19.77;;;14.63;;
21806;SDS011;11065;50.786;7.840;2022-12-15T11:33:52;18.87;;;13.67;;
21806;SDS011;11065;50.786;7.840;2022-12-15T11:36:25;18.43;;;14.37;;
21806;SDS011;11065;50.786;7.840;2022-12-15T11:39:08;19.97;;;14.90;;
21806;SDS011;11065;50.786;7.840;2022-12-15T11:45:01;18.83;;;14.90;;
21806;SDS011;11065;50.786;7.840;2022-12-15T11:47:48;20.27;;;14.63;;
21806;SDS011;11065;50.786;7.840;2022-12-15T11:53:03;18.03;;;14.20;;
21806;SDS011;11065;50.786;7.840;2022-12-15T11:58:32;17.60;;;13.83;;
21806;SDS011;11065;50.786;7.840;2022-12-15T12:01:18;16.03;;;12.33;;
21806;SDS011;11065;50.786;7.840;2022-12-15T12:04:22;17.67;;;13.00;;
21806;SDS011;11065;50.786;7.840;2022-12-15T12:10:01;18.73;;;13.50;;
21806;SDS011;11065;50.786;7.840;2022-12-15T12:12:37;17.83;;;13.03;;
21806;SDS011;11065;50.786;7.840;2022-12-15T12:18:25;15.60;;;11.83;;
21806;SDS011;11065;50.786;7.840;2022-12-15T12:21:00;14.90;;;11.00;;
21806;SDS011;11065;50.786;7.840;2022-12-15T12:23:44;14.83;;;11.30;;
21806;SDS011;11065;50.786;7.840;2022-12-15T12:26:20;14.83;;;11.63;;
21806;SDS011;11065;50.786;7.840;2022-12-15T12:28:53;16.00;;;12.27;;
21806;SDS011;11065;50.786;7.840;2022-12-15T12:37:24;14.30;;;11.30;;
21806;SDS011;11065;50.786;7.840;2022-12-15T12:39:52;14.47;;;11.37;;
21806;SDS011;11065;50.786;7.840;2022-12-15T12:42:36;16.73;;;12.00;;
21806;SDS011;11065;50.786;7.840;2022-12-15T12:45:15;16.83;;;12.23;;
21806;SDS011;11065;50.786;7.840;2022-12-15T12:47:45;16.73;;;12.67;;
21806;SDS011;11065;50.786;7.840;2022-12-15T12:50:18;16.90;;;12.90;;
21806;SDS011;11065;50.786;7.840;2022-12-15T12:52:49;16.13;;;13.07;;
21806;SDS011;11065;50.786;7.840;2022-12-15T12:57:54;15.90;;;12.30;;
21806;SDS011;11065;50.786;7.840;2022-12-15T13:00:22;16.03;;;12.30;;
21806;SDS011;11065;50.786;7.840;2022-12-15T13:05:39;16.53;;;12.23;;
21806;SDS011;11065;50.786;7.840;2022-12-15T13:10:41;17.07;;;12.57;;
21806;SDS011;11065;50.786;7.840;2022-12-15T13:16:08;14.67;;;11.37;;
21806;SDS011;11065;50.786;7.840;2022-12-15T13:18:56;15.37;;;11.60;;
21806;SDS011;11065;50.786;7.840;2022-12-15T13:35:14;15.40;;;11.30;;
21806;SDS011;11065;50.786;7.840;2022-12-15T13:38:02;16.00;;;12.10;;
21806;SDS011;11065;50.786;7.840;2022-12-15T13:48:12;16.27;;;12.03;;
21806;SDS011;11065;50.786;7.840;2022-12-15T13:53:47;17.73;;;12.03;;
21806;SDS011;11065;50.786;7.840;2022-12-15T13:56:43;15.13;;;11.57;;
21806;SDS011;11065;50.786;7.840;2022-12-15T14:01:56;15.37;;;11.80;;
21806;SDS011;11065;50.786;7.840;2022-12-15T14:04:22;15.80;;;12.17;;
21806;SDS011;11065;50.786;7.840;2022-12-15T14:06:53;17.50;;;12.00;;
21806;SDS011;11065;50.786;7.840;2022-12-15T14:09:31;14.97;;;10.77;;
21806;SDS011;11065;50.786;7.840;2022-12-15T14:12:01;15.73;;;10.77;;
21806;SDS011;11065;50.786;7.840;2022-12-15T14:14:32;14.23;;;9.80;;
21806;SDS011;11065;50.786;7.840;2022-12-15T14:17:04;12.57;;;9.80;;
21806;SDS011;11065;50.786;7.840;2022-12-15T14:19:38;14.37;;;9.47;;
21806;SDS011;11065;50.786;7.840;2022-12-15T14:22:19;16.70;;;10.83;;
21806;SDS011;11065;50.786;7.840;2022-12-15T14:25:28;12.77;;;9.63;;
21806;SDS011;11065;50.786;7.840;2022-12-15T14:27:49;13.43;;;9.40;;
21806;SDS011;11065;50.786;7.840;2022-12-15T14:30:18;14.20;;;9.67;;
21806;SDS011;11065;50.786;7.840;2022-12-15T14:32:46;14.13;;;10.07;;
21806;SDS011;11065;50.786;7.840;2022-12-15T14:35:29;15.77;;;10.60;;
21806;SDS011;11065;50.786;7.840;2022-12-15T14:38:02;14.20;;;9.53;;
21806;SDS011;11065;50.786;7.840;2022-12-15T14:40:33;15.20;;;9.60;;
21806;SDS011;11065;50.786;7.840;2022-12-15T14:43:03;16.17;;;10.63;;
21806;SDS011;11065;50.786;7.840;2022-12-15T14:45:32;14.20;;;9.53;;
21806;SDS011;11065;50.786;7.840;2022-12-15T14:48:00;15.00;;;9.97;;
21806;SDS011;11065;50.786;7.840;2022-12-15T14:50:52;15.67;;;10.73;;
21806;SDS011;11065;50.786;7.840;2022-12-15T14:53:20;16.33;;;11.23;;
21806;SDS011;11065;50.786;7.840;2022-12-15T14:55:48;16.17;;;11.80;;
21806;SDS011;11065;50.786;7.840;2022-12-15T14:58:33;19.73;;;12.93;;
21806;SDS011;11065;50.786;7.840;2022-12-15T15:01:01;18.17;;;12.13;;
21806;SDS011;11065;50.786;7.840;2022-12-15T15:03:38;20.47;;;12.70;;
21806;SDS011;11065;50.786;7.840;2022-12-15T15:08:47;16.33;;;12.17;;
21806;SDS011;11065;50.786;7.840;2022-12-15T15:11:25;18.63;;;12.70;;
21806;SDS011;11065;50.786;7.840;2022-12-15T15:13:59;17.60;;;11.43;;
21806;SDS011;11065;50.786;7.840;2022-12-15T15:16:35;16.87;;;11.40;;
21806;SDS011;11065;50.786;7.840;2022-12-15T15:19:03;17.80;;;11.03;;
21806;SDS011;11065;50.786;7.840;2022-12-15T15:21:33;17.03;;;11.13;;
21806;SDS011;11065;50.786;7.840;2022-12-15T15:24:03;17.20;;;12.27;;
21806;SDS011;11065;50.786;7.840;2022-12-15T15:26:42;18.33;;;12.10;;
21806;SDS011;11065;50.786;7.840;2022-12-15T15:32:05;16.80;;;12.30;;
21806;SDS011;11065;50.786;7.840;2022-12-15T15:34:46;18.97;;;12.70;;
21806;SDS011;11065;50.786;7.840;2022-12-15T15:37:32;18.23;;;12.83;;
21806;SDS011;11065;50.786;7.840;2022-12-15T15:39:59;20.67;;;12.60;;
21806;SDS011;11065;50.786;7.840;2022-12-15T15:42:27;17.77;;;12.07;;
21806;SDS011;11065;50.786;7.840;2022-12-15T15:44:58;20.57;;;14.17;;
21806;SDS011;11065;50.786;7.840;2022-12-15T15:47:25;18.23;;;12.37;;
21806;SDS011;11065;50.786;7.840;2022-12-15T15:49:52;17.33;;;11.67;;
21806;SDS011;11065;50.786;7.840;2022-12-15T15:52:21;17.37;;;11.40;;
21806;SDS011;11065;50.786;7.840;2022-12-15T15:54:48;14.93;;;9.87;;
21806;SDS011;11065;50.786;7.840;2022-12-15T15:57:17;15.27;;;9.93;;
21806;SDS011;11065;50.786;7.840;2022-12-15T15:59:44;14.90;;;9.97;;
21806;SDS011;11065;50.786;7.840;2022-12-15T16:02:12;16.23;;;10.37;;
21806;SDS011;11065;50.786;7.840;2022-12-15T16:04:40;16.67;;;10.77;;
21806;SDS011;11065;50.786;7.840;2022-12-15T16:07:15;16.70;;;11.13;;
21806;SDS011;11065;50.786;7.840;2022-12-15T16:09:49;21.13;;;11.27;;
21806;SDS011;11065;50.786;7.840;2022-12-15T16:12:28;19.07;;;11.07;;
21806;SDS011;11065;50.786;7.840;2022-12-15T16:15:24;19.23;;;13.37;;
21806;SDS011;11065;50.786;7.840;2022-12-15T16:17:53;19.13;;;12.77;;
21806;SDS011;11065;50.786;7.840;2022-12-15T16:20:22;19.67;;;13.33;;
21806;SDS011;11065;50.786;7.840;2022-12-15T16:22:52;18.57;;;11.83;;
21806;SDS011;11065;50.786;7.840;2022-12-15T16:25:25;21.73;;;13.77;;
21806;SDS011;11065;50.786;7.840;2022-12-15T16:28:11;19.17;;;12.23;;
21806;SDS011;11065;50.786;7.840;2022-12-15T16:30:41;18.40;;;12.73;;
21806;SDS011;11065;50.786;7.840;2022-12-15T16:33:08;19.37;;;12.63;;
21806;SDS011;11065;50.786;7.840;2022-12-15T16:35:36;18.93;;;11.93;;
21806;SDS011;11065;50.786;7.840;2022-12-15T16:38:05;17.50;;;11.77;;
21806;SDS011;11065;50.786;7.840;2022-12-15T16:40:38;17.80;;;12.50;;
21806;SDS011;11065;50.786;7.840;2022-12-15T16:43:11;22.97;;;14.07;;
21806;SDS011;11065;50.786;7.840;2022-12-15T16:45:41;21.80;;;13.30;;
21806;SDS011;11065;50.786;7.840;2022-12-15T16:48:13;21.30;;;12.87;;
21806;SDS011;11065;50.786;7.840;2022-12-15T16:50:42;20.27;;;12.33;;
21806;SDS011;11065;50.786;7.840;2022-12-15T16:53:28;17.60;;;11.60;;
21806;SDS011;11065;50.786;7.840;2022-12-15T16:56:04;17.67;;;11.50;;
21806;SDS011;11065;50.786;7.840;2022-12-15T16:58:33;16.47;;;10.93;;
21806;SDS011;11065;50.786;7.840;2022-12-15T17:01:01;15.00;;;10.07;;
21806;SDS011;11065;50.786;7.840;2022-12-15T17:03:29;15.07;;;9.93;;
21806;SDS011;11065;50.786;7.840;2022-12-15T17:06:00;16.93;;;10.70;;